sensor_id;sensor_type;location;lat;lon;timestamp;pressure;altitude;pressure_sealevel;temperature;humidity
19128;BME280;9696;53.686;10.094;2023-03-03T00:00:51;102250.59;;;-0.19;100.00
19128;BME280;9696;53.686;10.094;2023-03-03T00:03:22;102252.44;;;-0.25;100.00
19128;BME280;9696;53.686;10.094;2023-03-03T00:05:52;102255.78;;;-0.20;100.00
19128;BME280;9696;53.686;10.094;2023-03-03T00:08:21;102243.47;;;-0.05;100.00
19128;BME280;9696;53.686;10.094;2023-03-03T00:10:50;102248.91;;;-0.21;100.00
19128;BME280;9696;53.686;10.094;2023-03-03T00:13:23;102251.31;;;-0.11;100.00
19128;BME280;9696;53.686;10.094;2023-03-03T00:16:04;102254.78;;;-0.13;100.00
19128;BME280;9696;53.686;10.094;2023-03-03T00:18:42;102253.88;;;-0.11;100.00
19128;BME280;9696;53.686;10.094;2023-03-03T00:21:39;102251.28;;;-0.09;100.00
19128;BME280;9696;53.686;10.094;2023-03-03T00:24:18;102243.78;;;-0.23;100.00
19128;BME280;9696;53.686;10.094;2023-03-03T00:26:48;102239.94;;;-0.01;100.00
19128;BME280;9696;53.686;10.094;2023-03-03T00:29:29;102248.53;;;0.00;100.00
19128;BME280;9696;53.686;10.094;2023-03-03T00:32:20;102254.53;;;0.00;100.00
19128;BME280;9696;53.686;10.094;2023-03-03T00:34:51;102252.72;;;0.06;100.00
19128;BME280;9696;53.686;10.094;2023-03-03T00:37:26;102253.59;;;0.05;100.00
19128;BME280;9696;53.686;10.094;2023-03-03T00:42:53;102258.16;;;-0.08;100.00
19128;BME280;9696;53.686;10.094;2023-03-03T00:45:42;102261.41;;;0.02;100.00
19128;BME280;9696;53.686;10.094;2023-03-03T00:48:23;102254.56;;;-0.01;100.00
19128;BME280;9696;53.686;10.094;2023-03-03T00:50:54;102248.78;;;-0.12;100.00
19128;BME280;9696;53.686;10.094;2023-03-03T00:53:25;102251.94;;;0.02;100.00
19128;BME280;9696;53.686;10.094;2023-03-03T00:55:55;102255.31;;;0.06;100.00
19128;BME280;9696;53.686;10.094;2023-03-03T00:58:25;102261.47;;;-0.02;100.00
19128;BME280;9696;53.686;10.094;2023-03-03T01:00:55;102255.31;;;0.06;100.00
19128;BME280;9696;53.686;10.094;2023-03-03T01:03:35;102253.72;;;0.00;100.00
19128;BME280;9696;53.686;10.094;2023-03-03T01:06:05;102245.84;;;0.05;100.00
19128;BME280;9696;53.686;10.094;2023-03-03T01:08:34;102247.84;;;-0.08;100.00
19128;BME280;9696;53.686;10.094;2023-03-03T01:11:06;102254.56;;;-0.01;100.00
19128;BME280;9696;53.686;10.094;2023-03-03T01:13:37;102242.41;;;0.04;100.00
19128;BME280;9696;53.686;10.094;2023-03-03T01:16:08;102238.22;;;0.00;100.00
19128;BME280;9696;53.686;10.094;2023-03-03T01:18:39;102232.06;;;0.07;100.00
19128;BME280;9696;53.686;10.094;2023-03-03T01:21:10;102227.06;;;-0.02;100.00
19128;BME280;9696;53.686;10.094;2023-03-03T01:23:39;102224.56;;;-0.07;100.00
19128;BME280;9696;53.686;10.094;2023-03-03T01:26:08;102236.53;;;-0.01;100.00
19128;BME280;9696;53.686;10.094;2023-03-03T01:28:39;102222.84;;;-0.06;100.00
19128;BME280;9696;53.686;10.094;2023-03-03T01:31:08;102227.00;;;0.01;100.00
19128;BME280;9696;53.686;10.094;2023-03-03T01:33:38;102224.81;;;-0.19;100.00
19128;BME280;9696;53.686;10.094;2023-03-03T01:36:08;102218.69;;;-0.13;100.00
19128;BME280;9696;53.686;10.094;2023-03-03T01:38:37;102227.22;;;-0.11;100.00
19128;BME280;9696;53.686;10.094;2023-03-03T01:41:07;102220.72;;;-0.30;100.00
19128;BME280;9696;53.686;10.094;2023-03-03T01:43:43;102224.22;;;-0.34;100.00
19128;BME280;9696;53.686;10.094;2023-03-03T01:46:45;102223.28;;;-0.30;100.00
19128;BME280;9696;53.686;10.094;2023-03-03T01:49:20;102227.00;;;-0.45;100.00
19128;BME280;9696;53.686;10.094;2023-03-03T01:51:54;102218.03;;;-0.24;100.00
19128;BME280;9696;53.686;10.094;2023-03-03T01:54:28;102211.47;;;-0.42;100.00
19128;BME280;9696;53.686;10.094;2023-03-03T01:57:00;102223.16;;;-0.23;100.00
19128;BME280;9696;53.686;10.094;2023-03-03T01:59:33;102222.22;;;-0.19;100.00
19128;BME280;9696;53.686;10.094;2023-03-03T02:02:04;62107.28;;;-141.04;100.00
19128;BME280;9696;53.686;10.094;2023-03-03T02:04:35;62107.28;;;-141.04;100.00
19128;BME280;9696;53.686;10.094;2023-03-03T02:07:06;62107.28;;;-141.04;100.00
19128;BME280;9696;53.686;10.094;2023-03-03T02:09:45;62107.28;;;-141.04;100.00
19128;BME280;9696;53.686;10.094;2023-03-03T02:12:18;62107.28;;;-141.04;100.00
19128;BME280;9696;53.686;10.094;2023-03-03T02:14:49;62107.28;;;-141.04;100.00
19128;BME280;9696;53.686;10.094;2023-03-03T02:17:19;102213.75;;;-0.24;100.00
19128;BME280;9696;53.686;10.094;2023-03-03T02:19:54;62107.28;;;-141.04;100.00
19128;BME280;9696;53.686;10.094;2023-03-03T02:22:33;102216.22;;;-0.19;100.00
19128;BME280;9696;53.686;10.094;2023-03-03T02:25:09;62107.28;;;-141.04;100.00
19128;BME280;9696;53.686;10.094;2023-03-03T02:27:42;62107.28;;;-141.04;100.00
19128;BME280;9696;53.686;10.094;2023-03-03T02:30:16;62107.28;;;-141.04;100.00
19128;BME280;9696;53.686;10.094;2023-03-03T02:32:46;62107.28;;;-141.04;100.00
19128;BME280;9696;53.686;10.094;2023-03-03T02:35:33;62107.28;;;-141.04;100.00
19128;BME280;9696;53.686;10.094;2023-03-03T02:38:10;62107.28;;;-141.04;100.00
19128;BME280;9696;53.686;10.094;2023-03-03T02:40:44;102203.88;;;-0.51;100.00
19128;BME280;9696;53.686;10.094;2023-03-03T02:43:20;62107.28;;;-141.04;100.00
19128;BME280;9696;53.686;10.094;2023-03-03T02:45:51;102212.19;;;-0.34;100.00
19128;BME280;9696;53.686;10.094;2023-03-03T02:48:21;62107.28;;;-141.04;100.00
19128;BME280;9696;53.686;10.094;2023-03-03T02:50:50;62107.28;;;-141.04;100.00
19128;BME280;9696;53.686;10.094;2023-03-03T02:53:19;62107.28;;;-141.04;100.00
19128;BME280;9696;53.686;10.094;2023-03-03T02:55:48;62107.28;;;-141.04;100.00
19128;BME280;9696;53.686;10.094;2023-03-03T02:58:18;102227.25;;;-0.60;100.00
19128;BME280;9696;53.686;10.094;2023-03-03T03:00:48;62107.28;;;-141.04;100.00
19128;BME280;9696;53.686;10.094;2023-03-03T03:03:21;62107.28;;;-141.04;100.00
19128;BME280;9696;53.686;10.094;2023-03-03T03:05:51;102228.44;;;-0.29;100.00
19128;BME280;9696;53.686;10.094;2023-03-03T03:08:22;102233.53;;;-0.27;100.00
19128;BME280;9696;53.686;10.094;2023-03-03T03:10:51;102236.13;;;-0.27;100.00
19128;BME280;9696;53.686;10.094;2023-03-03T03:13:21;102231.91;;;-0.31;100.00
19128;BME280;9696;53.686;10.094;2023-03-03T03:15:51;102233.75;;;-0.39;100.00
19128;BME280;9696;53.686;10.094;2023-03-03T03:18:20;102232.06;;;-0.40;100.00
19128;BME280;9696;53.686;10.094;2023-03-03T03:20:50;102232.22;;;-0.51;100.00
19128;BME280;9696;53.686;10.094;2023-03-03T03:23:19;102224.41;;;-0.45;100.00
19128;BME280;9696;53.686;10.094;2023-03-03T03:25:49;102225.59;;;-0.64;100.00
19128;BME280;9696;53.686;10.094;2023-03-03T03:28:25;102217.75;;;-0.57;100.00
19128;BME280;9696;53.686;10.094;2023-03-03T03:30:55;102217.75;;;-0.57;100.00
19128;BME280;9696;53.686;10.094;2023-03-03T03:33:24;102214.19;;;-0.51;100.00
19128;BME280;9696;53.686;10.094;2023-03-03T03:35:56;102224.34;;;-0.40;100.00
19128;BME280;9696;53.686;10.094;2023-03-03T03:38:26;102221.78;;;-0.40;100.00
19128;BME280;9696;53.686;10.094;2023-03-03T03:40:56;102225.94;;;-0.33;100.00
19128;BME280;9696;53.686;10.094;2023-03-03T03:43:27;102226.28;;;-0.55;100.00
19128;BME280;9696;53.686;10.094;2023-03-03T03:45:57;102221.78;;;-0.42;100.00
19128;BME280;9696;53.686;10.094;2023-03-03T03:48:27;102213.59;;;-0.67;100.00
19128;BME280;9696;53.686;10.094;2023-03-03T03:50:56;102208.38;;;-0.62;100.00
19128;BME280;9696;53.686;10.094;2023-03-03T03:53:27;102213.78;;;-0.79;100.00
19128;BME280;9696;53.686;10.094;2023-03-03T03:55:57;102212.84;;;-0.72;100.00
19128;BME280;9696;53.686;10.094;2023-03-03T03:58:27;102209.44;;;-0.74;100.00
19128;BME280;9696;53.686;10.094;2023-03-03T04:01:05;102204.50;;;-0.87;100.00
19128;BME280;9696;53.686;10.094;2023-03-03T04:03:40;102208.69;;;-0.82;100.00
19128;BME280;9696;53.686;10.094;2023-03-03T04:06:13;102201.03;;;-0.86;100.00
19128;BME280;9696;53.686;10.094;2023-03-03T04:08:42;102194.84;;;-0.75;100.00
19128;BME280;9696;53.686;10.094;2023-03-03T04:11:11;102198.94;;;-0.62;100.00
19128;BME280;9696;53.686;10.094;2023-03-03T04:13:42;102198.94;;;-0.62;100.00
19128;BME280;9696;53.686;10.094;2023-03-03T04:16:12;102196.28;;;-0.59;100.00
19128;BME280;9696;53.686;10.094;2023-03-03T04:18:42;102198.34;;;-0.79;100.00
19128;BME280;9696;53.686;10.094;2023-03-03T04:21:15;102207.84;;;-0.82;100.00
19128;BME280;9696;53.686;10.094;2023-03-03T04:23:46;102204.41;;;-0.80;100.00
19128;BME280;9696;53.686;10.094;2023-03-03T04:26:15;102205.81;;;-0.62;100.00
19128;BME280;9696;53.686;10.094;2023-03-03T04:28:46;102204.34;;;-0.77;100.00
19128;BME280;9696;53.686;10.094;2023-03-03T04:31:15;102202.47;;;-0.69;100.00
19128;BME280;9696;53.686;10.094;2023-03-03T04:33:44;102197.72;;;-0.42;100.00
19128;BME280;9696;53.686;10.094;2023-03-03T04:36:14;102191.13;;;-0.57;100.00
19128;BME280;9696;53.686;10.094;2023-03-03T04:38:43;102197.72;;;-0.41;100.00
19128;BME280;9696;53.686;10.094;2023-03-03T04:41:13;102197.00;;;-0.51;100.00
19128;BME280;9696;53.686;10.094;2023-03-03T04:43:45;102203.72;;;-0.40;100.00
19128;BME280;9696;53.686;10.094;2023-03-03T04:46:14;102205.31;;;-0.33;100.00
19128;BME280;9696;53.686;10.094;2023-03-03T04:48:43;102209.03;;;-0.51;100.00
19128;BME280;9696;53.686;10.094;2023-03-03T04:51:12;102216.88;;;-0.57;100.00
19128;BME280;9696;53.686;10.094;2023-03-03T04:53:44;102208.88;;;-0.40;100.00
19128;BME280;9696;53.686;10.094;2023-03-03T04:56:14;102209.72;;;-0.40;100.00
19128;BME280;9696;53.686;10.094;2023-03-03T04:58:43;102214.03;;;-0.42;100.00
19128;BME280;9696;53.686;10.094;2023-03-03T05:01:13;102219.72;;;-0.72;100.00
19128;BME280;9696;53.686;10.094;2023-03-03T05:03:42;102219.34;;;-0.50;100.00
19128;BME280;9696;53.686;10.094;2023-03-03T05:06:12;102220.25;;;-0.52;100.00
19128;BME280;9696;53.686;10.094;2023-03-03T05:08:41;102219.59;;;-0.66;100.00
19128;BME280;9696;53.686;10.094;2023-03-03T05:11:10;102213.38;;;-0.53;100.00
19128;BME280;9696;53.686;10.094;2023-03-03T05:13:39;102215.97;;;-0.55;100.00
19128;BME280;9696;53.686;10.094;2023-03-03T05:16:08;102212.59;;;-0.58;100.00
19128;BME280;9696;53.686;10.094;2023-03-03T05:18:39;102212.47;;;-0.51;100.00
19128;BME280;9696;53.686;10.094;2023-03-03T05:21:08;102210.56;;;-0.39;100.00
19128;BME280;9696;53.686;10.094;2023-03-03T05:23:37;102216.63;;;-0.40;100.00
19128;BME280;9696;53.686;10.094;2023-03-03T05:26:06;102214.88;;;-0.40;100.00
19128;BME280;9696;53.686;10.094;2023-03-03T05:28:35;102204.03;;;-0.59;100.00
19128;BME280;9696;53.686;10.094;2023-03-03T05:31:04;102202.00;;;-0.40;100.00
19128;BME280;9696;53.686;10.094;2023-03-03T05:33:34;102210.53;;;-0.36;100.00
19128;BME280;9696;53.686;10.094;2023-03-03T05:36:05;102220.84;;;-0.36;100.00
19128;BME280;9696;53.686;10.094;2023-03-03T05:38:34;102217.41;;;-0.38;100.00
19128;BME280;9696;53.686;10.094;2023-03-03T05:41:03;102212.53;;;-0.54;100.00
19128;BME280;9696;53.686;10.094;2023-03-03T05:43:32;102207.81;;;-0.29;100.00
19128;BME280;9696;53.686;10.094;2023-03-03T05:46:01;102214.91;;;-0.43;100.00
19128;BME280;9696;53.686;10.094;2023-03-03T05:48:31;102207.44;;;-0.57;100.00
19128;BME280;9696;53.686;10.094;2023-03-03T05:51:00;102209.00;;;-0.48;100.00
19128;BME280;9696;53.686;10.094;2023-03-03T05:53:31;102210.44;;;-0.32;100.00
19128;BME280;9696;53.686;10.094;2023-03-03T05:56:00;102214.84;;;-0.38;100.00
19128;BME280;9696;53.686;10.094;2023-03-03T05:58:29;102216.03;;;-0.59;100.00
19128;BME280;9696;53.686;10.094;2023-03-03T06:00:58;102219.34;;;-0.51;100.00
19128;BME280;9696;53.686;10.094;2023-03-03T06:03:27;102229.31;;;-0.31;100.00
19128;BME280;9696;53.686;10.094;2023-03-03T06:05:56;102225.28;;;-0.44;100.00
19128;BME280;9696;53.686;10.094;2023-03-03T06:08:25;102226.13;;;-0.44;100.00
19128;BME280;9696;53.686;10.094;2023-03-03T06:10:56;102224.41;;;-0.43;100.00
19128;BME280;9696;53.686;10.094;2023-03-03T06:13:25;102233.00;;;-0.46;100.00
19128;BME280;9696;53.686;10.094;2023-03-03T06:15:54;102235.13;;;-0.69;100.00
19128;BME280;9696;53.686;10.094;2023-03-03T06:18:23;102232.50;;;-0.66;100.00
19128;BME280;9696;53.686;10.094;2023-03-03T06:20:53;102231.69;;;-0.68;100.00
19128;BME280;9696;53.686;10.094;2023-03-03T06:23:22;102230.72;;;-0.63;100.00
19128;BME280;9696;53.686;10.094;2023-03-03T06:25:51;102236.97;;;-0.76;100.00
19128;BME280;9696;53.686;10.094;2023-03-03T06:28:21;102241.94;;;-0.65;100.00
19128;BME280;9696;53.686;10.094;2023-03-03T06:30:53;102244.75;;;-0.80;100.00
19128;BME280;9696;53.686;10.094;2023-03-03T06:33:22;102263.06;;;-0.43;100.00
19128;BME280;9696;53.686;10.094;2023-03-03T06:35:53;102247.06;;;-0.64;100.00
19128;BME280;9696;53.686;10.094;2023-03-03T06:38:22;102260.38;;;-0.37;100.00
19128;BME280;9696;53.686;10.094;2023-03-03T06:40:51;102265.78;;;-0.53;100.00
19128;BME280;9696;53.686;10.094;2023-03-03T06:43:22;102257.22;;;-0.55;100.00
19128;BME280;9696;53.686;10.094;2023-03-03T06:45:51;102274.97;;;-0.36;100.00
19128;BME280;9696;53.686;10.094;2023-03-03T06:48:20;102265.66;;;-0.45;100.00
19128;BME280;9696;53.686;10.094;2023-03-03T06:50:49;102270.69;;;-0.39;100.00
19128;BME280;9696;53.686;10.094;2023-03-03T06:53:18;102269.34;;;-0.60;100.00
19128;BME280;9696;53.686;10.094;2023-03-03T06:55:47;102268.28;;;-0.48;100.00
19128;BME280;9696;53.686;10.094;2023-03-03T06:58:18;102254.34;;;-0.38;100.00
19128;BME280;9696;53.686;10.094;2023-03-03T07:00:53;102258.94;;;-0.55;100.00
19128;BME280;9696;53.686;10.094;2023-03-03T07:03:24;102262.09;;;-0.39;100.00
19128;BME280;9696;53.686;10.094;2023-03-03T07:05:54;102262.72;;;-0.24;100.00
19128;BME280;9696;53.686;10.094;2023-03-03T07:08:25;102262.47;;;-0.12;100.00
19128;BME280;9696;53.686;10.094;2023-03-03T07:11:01;102266.09;;;-0.20;100.00
19128;BME280;9696;53.686;10.094;2023-03-03T07:13:39;102269.41;;;-0.14;100.00
19128;BME280;9696;53.686;10.094;2023-03-03T07:16:14;102276.19;;;-0.08;100.00
19128;BME280;9696;53.686;10.094;2023-03-03T07:18:48;102285.22;;;-0.33;100.00
19128;BME280;9696;53.686;10.094;2023-03-03T07:21:20;102279.66;;;-0.09;100.00
19128;BME280;9696;53.686;10.094;2023-03-03T07:23:50;102285.53;;;-0.03;100.00
19128;BME280;9696;53.686;10.094;2023-03-03T07:26:22;102286.44;;;-0.05;100.00
19128;BME280;9696;53.686;10.094;2023-03-03T07:28:56;102288.44;;;-0.21;100.00
19128;BME280;9696;53.686;10.094;2023-03-03T07:31:30;102291.09;;;-0.25;100.00
19128;BME280;9696;53.686;10.094;2023-03-03T07:34:04;102285.94;;;-0.27;100.00
19128;BME280;9696;53.686;10.094;2023-03-03T07:36:43;102280.78;;;-0.25;100.00
19128;BME280;9696;53.686;10.094;2023-03-03T07:39:24;102285.69;;;-0.10;100.00
19128;BME280;9696;53.686;10.094;2023-03-03T07:41:57;102278.00;;;-0.15;100.00
19128;BME280;9696;53.686;10.094;2023-03-03T07:44:33;102284.59;;;0.03;100.00
19128;BME280;9696;53.686;10.094;2023-03-03T07:47:14;102295.94;;;-0.07;100.00
19128;BME280;9696;53.686;10.094;2023-03-03T07:49:46;102299.22;;;0.01;100.00
19128;BME280;9696;53.686;10.094;2023-03-03T07:52:24;102294.69;;;0.14;100.00
19128;BME280;9696;53.686;10.094;2023-03-03T07:54:56;102300.38;;;0.32;100.00
19128;BME280;9696;53.686;10.094;2023-03-03T07:57:28;102295.34;;;0.25;100.00
19128;BME280;9696;53.686;10.094;2023-03-03T08:00:03;102300.63;;;0.19;100.00
19128;BME280;9696;53.686;10.094;2023-03-03T08:02:43;102302.00;;;0.36;100.00
19128;BME280;9696;53.686;10.094;2023-03-03T08:05:28;102295.03;;;0.41;100.00
19128;BME280;9696;53.686;10.094;2023-03-03T08:08:14;102297.53;;;0.46;100.00
19128;BME280;9696;53.686;10.094;2023-03-03T08:10:48;102288.22;;;0.39;100.00
19128;BME280;9696;53.686;10.094;2023-03-03T08:13:19;102289.97;;;0.37;100.00
19128;BME280;9696;53.686;10.094;2023-03-03T08:15:51;102282.13;;;0.41;100.00
19128;BME280;9696;53.686;10.094;2023-03-03T08:18:28;102285.59;;;0.40;100.00
19128;BME280;9696;53.686;10.094;2023-03-03T08:20:58;102278.06;;;0.30;100.00
19128;BME280;9696;53.686;10.094;2023-03-03T08:23:28;102278.00;;;0.33;100.00
19128;BME280;9696;53.686;10.094;2023-03-03T08:25:57;102280.94;;;0.58;100.00
19128;BME280;9696;53.686;10.094;2023-03-03T08:28:26;102271.31;;;0.66;100.00
19128;BME280;9696;53.686;10.094;2023-03-03T08:30:55;102271.97;;;0.75;100.00
19128;BME280;9696;53.686;10.094;2023-03-03T08:33:46;102272.38;;;0.95;100.00
19128;BME280;9696;53.686;10.094;2023-03-03T08:36:15;102265.28;;;0.67;100.00
19128;BME280;9696;53.686;10.094;2023-03-03T08:38:45;102271.00;;;0.81;100.00
19128;BME280;9696;53.686;10.094;2023-03-03T08:41:14;102275.38;;;0.76;100.00
19128;BME280;9696;53.686;10.094;2023-03-03T08:43:43;102273.13;;;1.01;100.00
19128;BME280;9696;53.686;10.094;2023-03-03T08:46:12;102277.19;;;1.11;100.00
19128;BME280;9696;53.686;10.094;2023-03-03T08:48:41;102269.69;;;1.00;100.00
19128;BME280;9696;53.686;10.094;2023-03-03T08:51:11;102273.22;;;0.98;100.00
19128;BME280;9696;53.686;10.094;2023-03-03T08:53:40;102272.56;;;0.88;100.00
19128;BME280;9696;53.686;10.094;2023-03-03T08:56:09;102269.75;;;0.99;100.00
19128;BME280;9696;53.686;10.094;2023-03-03T08:58:38;102274.47;;;1.18;100.00
19128;BME280;9696;53.686;10.094;2023-03-03T09:01:28;102283.66;;;0.93;100.00
19128;BME280;9696;53.686;10.094;2023-03-03T09:03:59;102290.41;;;0.99;100.00
19128;BME280;9696;53.686;10.094;2023-03-03T09:06:29;102285.19;;;1.02;100.00
19128;BME280;9696;53.686;10.094;2023-03-03T09:08:58;102279.59;;;1.20;100.00
19128;BME280;9696;53.686;10.094;2023-03-03T09:11:29;102281.28;;;1.21;100.00
19128;BME280;9696;53.686;10.094;2023-03-03T09:14:05;102291.25;;;1.37;100.00
19128;BME280;9696;53.686;10.094;2023-03-03T09:16:38;102295.66;;;1.34;100.00
19128;BME280;9696;53.686;10.094;2023-03-03T09:19:23;102293.84;;;1.36;100.00
19128;BME280;9696;53.686;10.094;2023-03-03T09:21:56;102301.34;;;1.47;100.00
19128;BME280;9696;53.686;10.094;2023-03-03T09:24:28;102297.88;;;1.49;100.00
19128;BME280;9696;53.686;10.094;2023-03-03T09:26:58;102308.78;;;1.60;100.00
19128;BME280;9696;53.686;10.094;2023-03-03T09:29:28;102310.06;;;1.42;100.00
19128;BME280;9696;53.686;10.094;2023-03-03T09:31:59;102303.13;;;1.46;100.00
19128;BME280;9696;53.686;10.094;2023-03-03T09:34:40;102292.22;;;1.69;100.00
19128;BME280;9696;53.686;10.094;2023-03-03T09:37:21;102295.19;;;1.54;100.00
19128;BME280;9696;53.686;10.094;2023-03-03T09:39:52;102294.25;;;1.55;100.00
19128;BME280;9696;53.686;10.094;2023-03-03T09:42:38;102297.50;;;1.64;100.00
19128;BME280;9696;53.686;10.094;2023-03-03T09:48:27;102306.88;;;1.68;100.00
19128;BME280;9696;53.686;10.094;2023-03-03T09:51:22;102304.75;;;1.85;100.00
19128;BME280;9696;53.686;10.094;2023-03-03T09:54:07;102307.16;;;1.92;100.00
19128;BME280;9696;53.686;10.094;2023-03-03T09:56:43;102299.66;;;2.15;100.00
19128;BME280;9696;53.686;10.094;2023-03-03T09:59:25;102300.53;;;2.14;100.00
19128;BME280;9696;53.686;10.094;2023-03-03T10:02:11;102306.31;;;1.91;100.00
19128;BME280;9696;53.686;10.094;2023-03-03T10:05:16;102304.56;;;1.92;100.00
19128;BME280;9696;53.686;10.094;2023-03-03T10:08:00;102298.13;;;2.06;100.00
19128;BME280;9696;53.686;10.094;2023-03-03T10:10:50;102299.66;;;2.46;100.00
19128;BME280;9696;53.686;10.094;2023-03-03T10:13:30;102293.69;;;2.44;100.00
19128;BME280;9696;53.686;10.094;2023-03-03T10:19:06;102291.25;;;2.37;100.00
19128;BME280;9696;53.686;10.094;2023-03-03T10:21:43;102293.16;;;2.62;100.00
19128;BME280;9696;53.686;10.094;2023-03-03T10:24:26;102288.47;;;2.74;100.00
19128;BME280;9696;53.686;10.094;2023-03-03T10:27:08;102292.94;;;2.69;100.00
19128;BME280;9696;53.686;10.094;2023-03-03T10:29:49;102288.13;;;3.16;100.00
19128;BME280;9696;53.686;10.094;2023-03-03T10:32:48;102288.69;;;2.68;100.00
19128;BME280;9696;53.686;10.094;2023-03-03T10:35:42;102284.69;;;2.86;100.00
19128;BME280;9696;53.686;10.094;2023-03-03T10:38:45;102276.69;;;2.94;100.00
19128;BME280;9696;53.686;10.094;2023-03-03T10:41:33;102272.50;;;3.17;100.00
19128;BME280;9696;53.686;10.094;2023-03-03T10:44:31;102284.81;;;3.11;100.00
19128;BME280;9696;53.686;10.094;2023-03-03T10:47:20;102283.69;;;2.90;100.00
19128;BME280;9696;53.686;10.094;2023-03-03T10:50:02;102291.53;;;3.16;100.00
19128;BME280;9696;53.686;10.094;2023-03-03T10:52:42;102280.63;;;3.05;100.00
19128;BME280;9696;53.686;10.094;2023-03-03T10:58:24;102281.31;;;3.40;100.00
19128;BME280;9696;53.686;10.094;2023-03-03T11:01:04;102276.81;;;3.17;100.00
19128;BME280;9696;53.686;10.094;2023-03-03T11:03:51;102278.47;;;3.47;100.00
19128;BME280;9696;53.686;10.094;2023-03-03T11:06:28;102264.88;;;3.65;100.00
19128;BME280;9696;53.686;10.094;2023-03-03T11:09:07;102266.50;;;3.94;100.00
19128;BME280;9696;53.686;10.094;2023-03-03T11:11:42;102264.44;;;3.79;100.00
19128;BME280;9696;53.686;10.094;2023-03-03T11:14:22;102264.03;;;3.65;100.00
19128;BME280;9696;53.686;10.094;2023-03-03T11:17:02;102270.69;;;3.47;100.00
19128;BME280;9696;53.686;10.094;2023-03-03T11:19:45;102262.09;;;3.45;100.00
19128;BME280;9696;53.686;10.094;2023-03-03T11:22:32;102253.66;;;3.65;100.00
19128;BME280;9696;53.686;10.094;2023-03-03T11:25:15;102257.13;;;3.39;100.00
19128;BME280;9696;53.686;10.094;2023-03-03T11:28:08;102248.84;;;3.54;100.00
19128;BME280;9696;53.686;10.094;2023-03-03T11:30:57;102244.03;;;3.93;100.00
19128;BME280;9696;53.686;10.094;2023-03-03T11:33:35;102247.63;;;4.62;100.00
19128;BME280;9696;53.686;10.094;2023-03-03T11:36:10;102235.56;;;4.36;100.00
19128;BME280;9696;53.686;10.094;2023-03-03T11:38:50;102235.53;;;4.61;100.00
19128;BME280;9696;53.686;10.094;2023-03-03T11:41:34;102236.44;;;4.37;100.00
19128;BME280;9696;53.686;10.094;2023-03-03T11:44:12;102228.06;;;4.52;100.00
19128;BME280;9696;53.686;10.094;2023-03-03T11:46:48;102228.53;;;4.15;100.00
19128;BME280;9696;53.686;10.094;2023-03-03T11:49:26;102225.88;;;4.41;100.00
19128;BME280;9696;53.686;10.094;2023-03-03T11:52:04;102218.38;;;4.79;100.00
19128;BME280;9696;53.686;10.094;2023-03-03T11:54:44;102224.13;;;5.08;100.00
19128;BME280;9696;53.686;10.094;2023-03-03T11:57:19;102233.22;;;4.75;100.00
19128;BME280;9696;53.686;10.094;2023-03-03T12:00:00;102225.28;;;4.56;100.00
19128;BME280;9696;53.686;10.094;2023-03-03T12:03:04;102218.75;;;4.46;100.00
19128;BME280;9696;53.686;10.094;2023-03-03T12:05:45;102219.81;;;4.64;100.00
19128;BME280;9696;53.686;10.094;2023-03-03T12:08:29;102215.50;;;5.08;100.00
19128;BME280;9696;53.686;10.094;2023-03-03T12:11:06;102207.09;;;5.01;100.00
19128;BME280;9696;53.686;10.094;2023-03-03T12:13:51;102201.44;;;4.90;100.00
19128;BME280;9696;53.686;10.094;2023-03-03T12:16:29;102194.31;;;5.17;100.00
19128;BME280;9696;53.686;10.094;2023-03-03T12:19:11;102186.31;;;5.21;100.00
19128;BME280;9696;53.686;10.094;2023-03-03T12:22:06;102190.16;;;5.13;100.00
19128;BME280;9696;53.686;10.094;2023-03-03T12:24:56;102186.63;;;5.76;100.00
19128;BME280;9696;53.686;10.094;2023-03-03T12:27:33;102176.06;;;5.79;100.00
19128;BME280;9696;53.686;10.094;2023-03-03T12:30:12;102177.25;;;6.31;100.00
19128;BME280;9696;53.686;10.094;2023-03-03T12:32:57;102171.88;;;6.15;100.00
19128;BME280;9696;53.686;10.094;2023-03-03T12:35:34;102171.44;;;5.86;100.00
19128;BME280;9696;53.686;10.094;2023-03-03T12:38:14;102169.34;;;5.53;100.00
19128;BME280;9696;53.686;10.094;2023-03-03T12:40:50;102169.16;;;5.58;100.00
19128;BME280;9696;53.686;10.094;2023-03-03T12:43:39;102154.72;;;5.71;100.00
19128;BME280;9696;53.686;10.094;2023-03-03T12:46:18;102157.13;;;5.76;100.00
19128;BME280;9696;53.686;10.094;2023-03-03T12:48:55;102150.50;;;5.68;100.00
19128;BME280;9696;53.686;10.094;2023-03-03T12:51:36;102145.34;;;5.67;100.00
19128;BME280;9696;53.686;10.094;2023-03-03T12:54:22;102139.50;;;5.62;100.00
19128;BME280;9696;53.686;10.094;2023-03-03T12:56:54;102135.81;;;5.88;100.00
19128;BME280;9696;53.686;10.094;2023-03-03T12:59:30;102134.88;;;5.89;100.00
19128;BME280;9696;53.686;10.094;2023-03-03T13:02:19;102140.28;;;5.84;100.00
19128;BME280;9696;53.686;10.094;2023-03-03T13:04:59;102131.78;;;5.60;100.00
19128;BME280;9696;53.686;10.094;2023-03-03T13:07:35;102136.13;;;5.60;100.00
19128;BME280;9696;53.686;10.094;2023-03-03T13:10:15;102127.50;;;5.78;100.00
19128;BME280;9696;53.686;10.094;2023-03-03T13:12:51;102132.41;;;5.65;100.00
19128;BME280;9696;53.686;10.094;2023-03-03T13:15:27;102130.75;;;5.83;100.00
19128;BME280;9696;53.686;10.094;2023-03-03T13:18:13;102128.28;;;6.00;100.00
19128;BME280;9696;53.686;10.094;2023-03-03T13:20:49;102124.34;;;6.10;100.00
19128;BME280;9696;53.686;10.094;2023-03-03T13:23:30;102118.44;;;6.26;100.00
19128;BME280;9696;53.686;10.094;2023-03-03T13:26:10;102119.22;;;6.28;100.00
19128;BME280;9696;53.686;10.094;2023-03-03T13:28:56;102116.13;;;6.20;100.00
19128;BME280;9696;53.686;10.094;2023-03-03T13:31:30;102112.09;;;6.31;100.00
19128;BME280;9696;53.686;10.094;2023-03-03T13:34:01;102108.31;;;6.20;100.00